createdAt,value
2023-01-06T00:02:22.733Z,101838.44
2023-01-06T00:05:24.179Z,101828.13
2023-01-06T00:08:25.631Z,101824.66
2023-01-06T00:11:27.106Z,101824.63
2023-01-06T00:14:28.436Z,101819.50
2023-01-06T00:17:30.890Z,101818.59
2023-01-06T00:20:32.258Z,101812.56
2023-01-06T00:23:35.306Z,101798.81
2023-01-06T00:26:36.655Z,101799.69
2023-01-06T00:29:38.017Z,101799.66
2023-01-06T00:32:39.413Z,101783.41
2023-01-06T00:35:40.824Z,101787.59
2023-01-06T00:38:42.233Z,101785.03
2023-01-06T00:41:43.714Z,101773.03
2023-01-06T00:44:45.315Z,101773.84
2023-01-06T00:47:46.761Z,101775.53
2023-01-06T00:50:48.159Z,101765.22
2023-01-06T00:53:49.626Z,101763.47
2023-01-06T00:56:52.689Z,101759.13
2023-01-06T00:59:54.104Z,101752.31
2023-01-06T01:02:55.505Z,101747.97
2023-01-06T01:06:05.938Z,101745.34
2023-01-06T01:09:08.654Z,101739.34
2023-01-06T01:12:11.007Z,101740.19
2023-01-06T01:15:13.215Z,101737.53
2023-01-06T01:18:14.758Z,101736.63
2023-01-06T01:21:16.150Z,101732.28
2023-01-06T01:24:18.178Z,101725.38
2023-01-06T01:27:19.862Z,101721.00
2023-01-06T01:30:21.270Z,101721.78
2023-01-06T01:33:22.989Z,101721.66
2023-01-06T01:36:24.403Z,101723.31
2023-01-06T01:39:28.211Z,101719.00
2023-01-06T01:42:29.741Z,101716.41
2023-01-06T01:45:31.206Z,101711.22
2023-01-06T01:48:35.291Z,101710.25
2023-01-06T01:51:42.836Z,101707.56
2023-01-06T01:54:45.831Z,101706.66
2023-01-06T01:58:16.199Z,101709.16
2023-01-06T02:01:18.033Z,101703.09
2023-01-06T02:04:21.836Z,101704.66
2023-01-06T02:07:25.919Z,101707.19
2023-01-06T02:10:27.331Z,101707.97
2023-01-06T02:13:29.107Z,101700.19
2023-01-06T02:16:40.647Z,101699.25
2023-01-06T02:19:51.097Z,101688.03
2023-01-06T02:23:25.440Z,101675.22
2023-01-06T02:26:44.083Z,101681.00
2023-01-06T02:30:05.877Z,101676.69
2023-01-06T02:33:18.971Z,101668.28
2023-01-06T02:36:45.457Z,101663.00
2023-01-06T02:40:15.245Z,101654.38
2023-01-06T02:43:50.578Z,101651.75
2023-01-06T02:47:14.758Z,101642.25
2023-01-06T02:50:52.989Z,101633.59
2023-01-06T02:54:07.248Z,101632.72
2023-01-06T02:57:25.785Z,101622.38
2023-01-06T03:00:35.893Z,101613.69
2023-01-06T03:03:41.634Z,101618.75
2023-01-06T03:06:47.348Z,101607.56
2023-01-06T03:09:53.501Z,101612.63
2023-01-06T03:13:08.838Z,101597.19
2023-01-06T03:16:10.629Z,101600.53
2023-01-06T03:19:12.627Z,101607.31
2023-01-06T03:22:16.055Z,101600.34
2023-01-06T03:25:17.976Z,101587.44
2023-01-06T03:28:19.575Z,101588.16
2023-01-06T03:31:31.375Z,101583.00
2023-01-06T03:35:11.476Z,101580.38
2023-01-06T03:38:32.260Z,101582.81
2023-01-06T03:41:43.848Z,101573.25
2023-01-06T03:44:57.163Z,101562.94
2023-01-06T03:48:11.621Z,101563.72
2023-01-06T03:51:22.841Z,101564.47
2023-01-06T03:54:37.130Z,101543.78
2023-01-06T03:57:44.547Z,101544.56
2023-01-06T04:00:48.273Z,101550.47
2023-01-06T04:03:55.366Z,101542.69
2023-01-06T04:07:00.453Z,101529.78
2023-01-06T04:10:02.239Z,101535.69
2023-01-06T04:13:04.555Z,101528.75
2023-01-06T04:16:08.592Z,101527.81
2023-01-06T04:19:10.057Z,101528.56
2023-01-06T04:22:12.066Z,101518.16
2023-01-06T04:25:14.225Z,101510.34
2023-01-06T04:28:16.047Z,101500.91
2023-01-06T04:31:19.102Z,101503.47
2023-01-06T04:34:22.889Z,101502.50
2023-01-06T04:37:24.384Z,101497.34
2023-01-06T04:40:25.743Z,101487.94
2023-01-06T04:43:27.111Z,101481.84
2023-01-06T04:46:28.454Z,101479.25
2023-01-06T04:49:30.440Z,101477.53
2023-01-06T04:52:31.802Z,101475.81
2023-01-06T04:55:33.239Z,101470.59
2023-01-06T04:58:36.051Z,101465.44
2023-01-06T05:01:37.691Z,101461.91
2023-01-06T05:04:47.317Z,101454.16
2023-01-06T05:07:49.216Z,101443.00
2023-01-06T05:10:50.571Z,101435.28
2023-01-06T05:13:53.338Z,101449.00
2023-01-06T05:16:54.725Z,101446.47
2023-01-06T05:19:56.089Z,101445.47
2023-01-06T05:22:57.471Z,101436.97
2023-01-06T05:25:58.952Z,101442.88
2023-01-06T05:29:00.309Z,101448.09
2023-01-06T05:32:02.120Z,101442.88
2023-01-06T05:35:03.649Z,101438.50
2023-01-06T05:38:05.368Z,101439.31
2023-01-06T05:41:06.761Z,101433.28
2023-01-06T05:44:08.266Z,101435.84
2023-01-06T05:47:09.674Z,101447.00
2023-01-06T05:50:11.037Z,101444.44
2023-01-06T05:53:12.579Z,101440.13
2023-01-06T05:56:18.155Z,101435.81
2023-01-06T05:59:19.535Z,101434.97
2023-01-06T06:02:20.904Z,101434.97
2023-01-06T06:05:22.651Z,101425.66
2023-01-06T06:08:23.986Z,101418.78
2023-01-06T06:11:25.662Z,101423.84
2023-01-06T06:14:27.008Z,101430.75
2023-01-06T06:17:28.427Z,101413.56
2023-01-06T06:20:30.213Z,101400.75
2023-01-06T06:23:32.008Z,101387.78
2023-01-06T06:26:33.382Z,101386.94
2023-01-06T06:29:34.758Z,101404.06
2023-01-06T06:32:36.176Z,101400.69
2023-01-06T06:35:37.528Z,101400.69
2023-01-06T06:38:39.230Z,101403.25
2023-01-06T06:41:40.567Z,101395.47
2023-01-06T06:44:41.898Z,101399.66
2023-01-06T06:47:43.255Z,101397.13
2023-01-06T06:50:44.758Z,101395.34
2023-01-06T06:53:46.222Z,101392.72
2023-01-06T06:56:47.785Z,101379.84
2023-01-06T06:59:49.299Z,101370.41
2023-01-06T07:02:51.388Z,101360.97
2023-01-06T07:05:53.385Z,101362.63
2023-01-06T07:08:54.750Z,101357.56
2023-01-06T07:11:56.117Z,101358.47
2023-01-06T07:14:57.456Z,101350.63
2023-01-06T07:18:03.288Z,101338.56
2023-01-06T07:21:05.540Z,101341.16
2023-01-06T07:24:07.114Z,101331.75
2023-01-06T07:27:08.475Z,101314.56
2023-01-06T07:30:10.335Z,101320.53
2023-01-06T07:33:11.846Z,101309.34
2023-01-06T07:36:13.215Z,101299.06
2023-01-06T07:39:14.576Z,101302.41
2023-01-06T07:42:15.937Z,101299.00
2023-01-06T07:45:17.380Z,101309.31
2023-01-06T07:48:18.727Z,101302.41
2023-01-06T07:51:20.071Z,101299.75
2023-01-06T07:54:21.456Z,101298.88
2023-01-06T07:57:22.791Z,101288.63
2023-01-06T08:00:24.170Z,101288.63
2023-01-06T08:03:25.555Z,101295.53
2023-01-06T08:06:26.970Z,101298.00
2023-01-06T08:09:28.460Z,101299.75
2023-01-06T08:12:29.832Z,101296.19
2023-01-06T08:15:31.223Z,101295.28
2023-01-06T08:18:32.715Z,101289.31
2023-01-06T08:21:34.180Z,101296.97
2023-01-06T08:24:35.569Z,101296.19
2023-01-06T08:27:36.990Z,101293.59
2023-01-06T08:30:38.358Z,101293.59
2023-01-06T08:33:39.949Z,101294.41
2023-01-06T08:36:41.652Z,101284.16
2023-01-06T08:39:43.005Z,101276.31
2023-01-06T08:42:44.366Z,101280.50
2023-01-06T08:45:45.744Z,101269.31
2023-01-06T08:48:47.905Z,101283.81
2023-01-06T08:51:49.342Z,101286.41
2023-01-06T08:54:50.752Z,101289.75
2023-01-06T08:57:54.684Z,101282.91
2023-01-06T09:00:56.329Z,101282.00
2023-01-06T09:03:59.665Z,101273.34
2023-01-06T09:07:01.002Z,101284.72
2023-01-06T09:10:03.280Z,101282.38
2023-01-06T09:13:05.101Z,101290.09
2023-01-06T09:16:10.860Z,101290.16
2023-01-06T09:19:12.240Z,101280.81
2023-01-06T09:22:13.591Z,101279.19
2023-01-06T09:25:15.007Z,101292.72
2023-01-06T09:28:16.473Z,101303.03
2023-01-06T09:31:18.053Z,101314.22
2023-01-06T09:34:19.448Z,101314.16
2023-01-06T09:37:20.855Z,101318.09
2023-01-06T09:40:29.552Z,101315.59
2023-01-06T09:43:42.903Z,101307.84
2023-01-06T09:46:48.089Z,101307.78
2023-01-06T09:50:04.310Z,101323.19
2023-01-06T09:53:14.021Z,101319.78
2023-01-06T09:56:17.519Z,101325.75
2023-01-06T09:59:31.080Z,101327.44
2023-01-06T10:02:39.934Z,101328.75
2023-01-06T10:06:17.320Z,101324.88
2023-01-06T10:09:36.157Z,101326.22
2023-01-06T10:12:47.467Z,101316.63
2023-01-06T10:16:03.096Z,101325.91
2023-01-06T10:19:19.107Z,101324.25
2023-01-06T10:22:37.244Z,101333.59
2023-01-06T10:25:50.144Z,101337.00
2023-01-06T10:28:54.565Z,101343.06
2023-01-06T10:31:59.568Z,101337.06
2023-01-06T10:35:02.052Z,101337.00
2023-01-06T10:38:06.744Z,101357.63
2023-01-06T10:41:27.474Z,101354.94
2023-01-06T10:44:29.740Z,101381.75
2023-01-06T10:47:34.190Z,101398.22
2023-01-06T10:50:35.619Z,101391.13
2023-01-06T10:53:37.063Z,101389.69
2023-01-06T10:56:41.366Z,101387.00
2023-01-06T11:00:08.684Z,101384.31
2023-01-06T11:03:32.369Z,101408.16
2023-01-06T11:06:34.632Z,101408.00
2023-01-06T11:09:43.703Z,101411.38
2023-01-06T11:12:45.891Z,101410.59
2023-01-06T11:15:47.327Z,101418.31
2023-01-06T11:18:58.372Z,101427.84
2023-01-06T11:22:00.060Z,101431.25
2023-01-06T11:25:01.962Z,101437.47
2023-01-06T11:28:09.384Z,101438.59
2023-01-06T11:31:16.117Z,101437.81
2023-01-06T11:34:22.518Z,101431.88
2023-01-06T11:37:40.325Z,101439.09
2023-01-06T11:40:44.744Z,101440.88
2023-01-06T11:43:46.829Z,101438.19
2023-01-06T11:46:52.206Z,101436.25
2023-01-06T11:49:56.991Z,101430.84
2023-01-06T11:53:04.800Z,101430.78
2023-01-06T11:56:26.449Z,101426.50
2023-01-06T11:59:38.900Z,101431.47
2023-01-06T12:03:05.121Z,101433.78
2023-01-06T12:06:16.385Z,101426.22
2023-01-06T12:09:26.445Z,101434.91
2023-01-06T12:12:28.382Z,101442.59
2023-01-06T12:15:33.169Z,101444.72
2023-01-06T12:18:40.236Z,101452.81
2023-01-06T12:21:42.337Z,101454.19
2023-01-06T12:24:46.893Z,101465.16
2023-01-06T12:27:53.473Z,101457.72
2023-01-06T12:31:00.157Z,101469.25
2023-01-06T12:34:17.375Z,101473.78
2023-01-06T12:37:35.447Z,101486.13
2023-01-06T12:40:45.033Z,101483.84
2023-01-06T12:43:56.042Z,101483.22
2023-01-06T12:47:22.266Z,101479.03
2023-01-06T12:50:45.309Z,101473.13
2023-01-06T12:53:57.839Z,101482.78
2023-01-06T12:57:08.941Z,101482.00
2023-01-06T13:00:34.538Z,101487.53
2023-01-06T13:04:03.695Z,101480.25
2023-01-06T13:07:19.412Z,101479.84
2023-01-06T13:10:39.328Z,101483.91
2023-01-06T13:13:54.458Z,101473.84
2023-01-06T13:17:00.332Z,101474.84
2023-01-06T13:20:03.068Z,101475.06
2023-01-06T13:23:19.509Z,101479.38
2023-01-06T13:26:41.454Z,101483.31
2023-01-06T13:30:14.784Z,101491.44
2023-01-06T13:33:27.167Z,101490.97
2023-01-06T13:36:40.383Z,101495.00
2023-01-06T13:39:45.614Z,101495.88
2023-01-06T13:43:25.332Z,101502.84
2023-01-06T13:46:30.157Z,101504.44
2023-01-06T13:49:32.179Z,101507.63
2023-01-06T13:52:33.675Z,101506.88
2023-01-06T13:55:35.663Z,101506.94
2023-01-06T13:58:38.212Z,101514.91
2023-01-06T14:01:39.672Z,101510.19
2023-01-06T14:04:41.046Z,101520.53
2023-01-06T14:07:50.808Z,101523.28
2023-01-06T14:11:05.404Z,101516.63
2023-01-06T14:14:19.692Z,101528.59
2023-01-06T14:17:37.897Z,101539.00
2023-01-06T14:20:39.406Z,101534.91
2023-01-06T14:23:55.903Z,101548.78
2023-01-06T14:27:00.596Z,101551.47
2023-01-06T14:30:05.049Z,101559.34
2023-01-06T14:33:25.229Z,101565.63
2023-01-06T14:36:29.214Z,101565.75
2023-01-06T14:39:32.200Z,101565.88
2023-01-06T14:42:44.410Z,101558.34
2023-01-06T14:45:46.326Z,101558.41
2023-01-06T14:48:53.772Z,101563.53
2023-01-06T14:51:58.306Z,101568.69
2023-01-06T14:55:01.240Z,101588.38
2023-01-06T14:58:02.627Z,101577.38
2023-01-06T15:01:06.291Z,101580.91
2023-01-06T15:04:22.584Z,101588.00
2023-01-06T15:07:23.997Z,101594.13
2023-01-06T15:10:26.428Z,101596.75
2023-01-06T15:13:30.187Z,101595.13
2023-01-06T15:16:37.889Z,101600.34
2023-01-06T15:19:43.655Z,101606.44
2023-01-06T15:22:48.639Z,101604.91
2023-01-06T15:25:54.943Z,101602.38
2023-01-06T15:29:04.010Z,101586.28
2023-01-06T15:32:11.602Z,101591.47
2023-01-06T15:35:19.316Z,101591.56
2023-01-06T15:38:27.928Z,101603.63
2023-01-06T15:41:30.781Z,101602.03
2023-01-06T15:44:33.357Z,101597.91
2023-01-06T15:47:34.718Z,101595.44
2023-01-06T15:50:36.342Z,101604.03
2023-01-06T15:53:37.818Z,101609.16
2023-01-06T15:56:39.861Z,101619.47
2023-01-06T15:59:42.093Z,101613.56
2023-01-06T16:02:47.220Z,101613.53
2023-01-06T16:05:51.890Z,101599.94
2023-01-06T16:09:21.667Z,101610.50
2023-01-06T16:12:23.058Z,101614.09
2023-01-06T16:15:35.540Z,101618.56
2023-01-06T16:18:37.811Z,101618.81
2023-01-06T16:21:41.069Z,101630.06
2023-01-06T16:24:42.445Z,101624.28
2023-01-06T16:27:47.060Z,101633.75
2023-01-06T16:31:26.969Z,101614.25
2023-01-06T16:34:31.290Z,101615.13
2023-01-06T16:37:33.916Z,101619.44
2023-01-06T16:40:35.298Z,101618.56
2023-01-06T16:43:36.660Z,101620.28
2023-01-06T16:46:38.157Z,101630.56
2023-01-06T16:49:39.545Z,101619.44
2023-01-06T16:52:41.181Z,101629.75
2023-01-06T16:55:43.151Z,101625.53
2023-01-06T16:58:44.638Z,101636.69
2023-01-06T17:01:47.890Z,101635.06
2023-01-06T17:04:49.303Z,101640.63
2023-01-06T17:07:52.681Z,101637.06
2023-01-06T17:10:53.942Z,101641.59
2023-01-06T17:14:02.533Z,101643.94
2023-01-06T17:17:21.119Z,101639.69
2023-01-06T17:20:22.579Z,101650.06
2023-01-06T17:23:23.971Z,101649.28
2023-01-06T17:26:27.265Z,101651.88
2023-01-06T17:29:32.495Z,101648.91
2023-01-06T17:32:37.637Z,101652.13
2023-01-06T17:35:41.416Z,101650.41
2023-01-06T17:38:47.258Z,101657.25
2023-01-06T17:41:49.831Z,101655.69
2023-01-06T17:44:53.912Z,101669.41
2023-01-06T17:47:56.237Z,101668.53
2023-01-06T17:50:57.620Z,101666.00
2023-01-06T17:53:59.084Z,101672.94
2023-01-06T17:57:11.725Z,101664.47
2023-01-06T18:00:34.520Z,101675.69
2023-01-06T18:03:41.670Z,101675.78
2023-01-06T18:06:45.749Z,101685.13
2023-01-06T18:09:47.089Z,101689.44
2023-01-06T18:12:48.457Z,101683.44
2023-01-06T18:15:57.344Z,101689.41
2023-01-06T18:19:15.249Z,101690.25
2023-01-06T18:22:22.775Z,101691.06
2023-01-06T18:25:24.855Z,101691.06
2023-01-06T18:28:26.745Z,101697.00
2023-01-06T18:31:37.152Z,101705.56
2023-01-06T18:34:42.925Z,101705.59
2023-01-06T18:37:44.376Z,101708.16
2023-01-06T18:40:45.860Z,101701.44
2023-01-06T18:43:47.191Z,101704.00
2023-01-06T18:46:48.574Z,101706.56
2023-01-06T18:49:54.425Z,101710.88
2023-01-06T18:53:22.799Z,101713.56
2023-01-06T18:56:25.914Z,101713.53
2023-01-06T18:59:27.261Z,101714.47
2023-01-06T19:02:39.170Z,101716.13
2023-01-06T19:05:41.539Z,101715.31
2023-01-06T19:08:45.760Z,101712.78
2023-01-06T19:11:50.708Z,101716.22
2023-01-06T19:14:53.330Z,101717.97
2023-01-06T19:17:54.971Z,101721.44
2023-01-06T19:20:56.376Z,101723.09
2023-01-06T19:23:57.721Z,101725.69
2023-01-06T19:27:00.007Z,101729.06
2023-01-06T19:30:27.147Z,101728.31
2023-01-06T19:33:47.202Z,101723.22
2023-01-06T19:36:50.322Z,101719.00
2023-01-06T19:39:56.654Z,101720.72
2023-01-06T19:43:10.273Z,101713.91
2023-01-06T19:46:14.668Z,101709.84
2023-01-06T19:49:24.914Z,101711.41
2023-01-06T19:52:40.498Z,101719.09
2023-01-06T19:55:41.856Z,101725.16
2023-01-06T19:58:50.057Z,101727.78
2023-01-06T20:02:26.773Z,101719.25
2023-01-06T20:05:29.430Z,101721.06
2023-01-06T20:08:30.821Z,101728.00
2023-01-06T20:11:32.201Z,101721.16
2023-01-06T20:14:33.584Z,101731.50
2023-01-06T20:17:34.932Z,101730.75
2023-01-06T20:20:36.372Z,101733.38
2023-01-06T20:23:37.726Z,101724.94
2023-01-06T20:26:39.087Z,101731.06
2023-01-06T20:29:40.461Z,101729.56
2023-01-06T20:32:41.872Z,101729.72
2023-01-06T20:35:43.496Z,101722.09
2023-01-06T20:38:45.185Z,101728.19
2023-01-06T20:41:46.617Z,101725.69
2023-01-06T20:44:48.001Z,101718.16
2023-01-06T20:47:49.377Z,101712.28
2023-01-06T20:50:52.057Z,101718.34
2023-01-06T20:53:54.561Z,101712.41
2023-01-06T20:56:55.904Z,101725.22
2023-01-06T20:59:57.271Z,101720.16
2023-01-06T21:02:58.652Z,101729.53
2023-01-06T21:06:00.164Z,101721.00
2023-01-06T21:09:01.497Z,101721.91
2023-01-06T21:12:02.875Z,101715.94
2023-01-06T21:15:07.939Z,101715.94
2023-01-06T21:18:09.439Z,101712.56
2023-01-06T21:21:10.877Z,101712.59
2023-01-06T21:24:12.219Z,101712.63
2023-01-06T21:27:13.565Z,101716.91
2023-01-06T21:30:14.927Z,101718.63
2023-01-06T21:33:16.263Z,101725.47
2023-01-06T21:36:17.586Z,101731.38
2023-01-06T21:39:18.928Z,101726.28
2023-01-06T21:42:20.288Z,101725.47
2023-01-06T21:45:21.759Z,101730.59
2023-01-06T21:48:23.097Z,101727.19
2023-01-06T21:51:24.617Z,101726.34
2023-01-06T21:54:26.218Z,101735.78
2023-01-06T21:57:28.440Z,101731.53
2023-01-06T22:00:29.833Z,101735.00
2023-01-06T22:03:31.173Z,101731.59
2023-01-06T22:06:33.786Z,101733.34
2023-01-06T22:09:36.630Z,101733.34
2023-01-06T22:12:39.552Z,101734.09
2023-01-06T22:15:42.014Z,101725.53
2023-01-06T22:18:43.432Z,101720.38
2023-01-06T22:21:46.150Z,101722.84
2023-01-06T22:24:49.378Z,101718.50
2023-01-06T22:27:50.767Z,101717.59
2023-01-06T22:30:54.420Z,101712.41
2023-01-06T22:33:55.825Z,101715.81
2023-01-06T22:36:57.225Z,101718.34
2023-01-06T22:39:58.570Z,101717.59
2023-01-06T22:42:59.930Z,101723.59
2023-01-06T22:46:01.380Z,101723.63
2023-01-06T22:49:02.889Z,101742.47
2023-01-06T22:52:04.490Z,101733.22
2023-01-06T22:55:06.633Z,101736.72
2023-01-06T22:58:07.988Z,101742.72
2023-01-06T23:01:09.652Z,101738.47
2023-01-06T23:04:11.159Z,101730.00
2023-01-06T23:07:12.511Z,101728.28
2023-01-06T23:10:14.281Z,101732.56
2023-01-06T23:13:15.671Z,101726.53
2023-01-06T23:16:19.076Z,101730.72
2023-01-06T23:19:20.522Z,101720.44
2023-01-06T23:22:21.843Z,101726.34
2023-01-06T23:25:24.250Z,101718.69
2023-01-06T23:28:27.988Z,101718.66
2023-01-06T23:31:31.781Z,101717.75
2023-01-06T23:34:33.132Z,101708.38
2023-01-06T23:37:34.511Z,101706.03
2023-01-06T23:40:35.857Z,101713.81
2023-01-06T23:43:37.982Z,101719.06
2023-01-06T23:46:39.892Z,101711.50
2023-01-06T23:49:41.270Z,101712.41
2023-01-06T23:52:42.640Z,101711.59
2023-01-06T23:55:53.870Z,101720.13
2023-01-06T23:58:57.410Z,101725.25
